sensor_id;sensor_type;location;lat;lon;timestamp;temperature;humidity
33594;DHT22;19920;52.242;20.940;2022-10-17T00:01:45;13.70;99.90
33594;DHT22;19920;52.242;20.940;2022-10-17T00:04:11;13.70;99.90
33594;DHT22;19920;52.242;20.940;2022-10-17T00:06:36;13.60;99.90
33594;DHT22;19920;52.242;20.940;2022-10-17T00:09:02;13.60;99.90
33594;DHT22;19920;52.242;20.940;2022-10-17T00:11:28;13.60;99.90
33594;DHT22;19920;52.242;20.940;2022-10-17T00:13:54;13.60;99.90
33594;DHT22;19920;52.242;20.940;2022-10-17T00:18:49;13.60;99.90
33594;DHT22;19920;52.242;20.940;2022-10-17T00:21:18;13.50;99.90
33594;DHT22;19920;52.242;20.940;2022-10-17T00:23:45;13.50;99.90
33594;DHT22;19920;52.242;20.940;2022-10-17T00:26:10;13.50;99.90
33594;DHT22;19920;52.242;20.940;2022-10-17T00:28:36;13.50;99.90
33594;DHT22;19920;52.242;20.940;2022-10-17T00:31:04;13.50;99.90
33594;DHT22;19920;52.242;20.940;2022-10-17T00:33:31;13.50;99.90
33594;DHT22;19920;52.242;20.940;2022-10-17T00:36:08;13.50;99.90
33594;DHT22;19920;52.242;20.940;2022-10-17T00:38:34;13.50;99.90
33594;DHT22;19920;52.242;20.940;2022-10-17T00:41:01;13.40;99.90
33594;DHT22;19920;52.242;20.940;2022-10-17T00:43:26;13.40;99.90
33594;DHT22;19920;52.242;20.940;2022-10-17T00:45:54;13.40;99.90
33594;DHT22;19920;52.242;20.940;2022-10-17T00:48:21;13.40;99.90
33594;DHT22;19920;52.242;20.940;2022-10-17T00:50:49;13.50;99.90
33594;DHT22;19920;52.242;20.940;2022-10-17T00:53:15;13.50;99.90
33594;DHT22;19920;52.242;20.940;2022-10-17T00:55:45;13.50;99.90
33594;DHT22;19920;52.242;20.940;2022-10-17T00:58:12;13.50;99.90
33594;DHT22;19920;52.242;20.940;2022-10-17T01:00:39;13.40;99.90
33594;DHT22;19920;52.242;20.940;2022-10-17T01:03:05;13.40;99.90
33594;DHT22;19920;52.242;20.940;2022-10-17T01:05:31;13.40;99.90
33594;DHT22;19920;52.242;20.940;2022-10-17T01:07:57;13.30;99.90
33594;DHT22;19920;52.242;20.940;2022-10-17T01:10:28;13.30;99.90
33594;DHT22;19920;52.242;20.940;2022-10-17T01:13:03;13.30;99.90
33594;DHT22;19920;52.242;20.940;2022-10-17T01:18:26;13.30;99.90
33594;DHT22;19920;52.242;20.940;2022-10-17T01:40:36;13.20;99.90
33594;DHT22;19920;52.242;20.940;2022-10-17T01:43:12;13.20;99.90
33594;DHT22;19920;52.242;20.940;2022-10-17T01:45:54;13.20;99.90
33594;DHT22;19920;52.242;20.940;2022-10-17T01:48:27;13.20;99.90
33594;DHT22;19920;52.242;20.940;2022-10-17T01:51:00;13.20;99.90
33594;DHT22;19920;52.242;20.940;2022-10-17T01:53:32;13.20;99.90
33594;DHT22;19920;52.242;20.940;2022-10-17T01:56:01;13.20;99.90
33594;DHT22;19920;52.242;20.940;2022-10-17T01:58:33;13.20;99.90
33594;DHT22;19920;52.242;20.940;2022-10-17T02:01:04;13.10;99.90
33594;DHT22;19920;52.242;20.940;2022-10-17T02:03:31;13.10;99.90
33594;DHT22;19920;52.242;20.940;2022-10-17T02:05:59;13.00;99.90
33594;DHT22;19920;52.242;20.940;2022-10-17T02:08:42;13.00;99.90
33594;DHT22;19920;52.242;20.940;2022-10-17T02:11:23;13.10;99.90
33594;DHT22;19920;52.242;20.940;2022-10-17T02:24:53;13.00;99.90
33594;DHT22;19920;52.242;20.940;2022-10-17T02:27:43;12.90;99.90
33594;DHT22;19920;52.242;20.940;2022-10-17T02:30:30;12.90;99.90
33594;DHT22;19920;52.242;20.940;2022-10-17T02:35:29;12.80;99.90
33594;DHT22;19920;52.242;20.940;2022-10-17T02:37:56;12.80;99.90
33594;DHT22;19920;52.242;20.940;2022-10-17T02:40:23;12.80;99.90
33594;DHT22;19920;52.242;20.940;2022-10-17T02:42:53;12.80;99.90
33594;DHT22;19920;52.242;20.940;2022-10-17T02:45:19;12.80;99.90
33594;DHT22;19920;52.242;20.940;2022-10-17T02:48:04;12.80;99.90
33594;DHT22;19920;52.242;20.940;2022-10-17T02:53:08;12.70;99.90
33594;DHT22;19920;52.242;20.940;2022-10-17T02:55:42;12.70;99.90
33594;DHT22;19920;52.242;20.940;2022-10-17T02:58:19;12.70;99.90
33594;DHT22;19920;52.242;20.940;2022-10-17T03:00:45;12.60;99.90
33594;DHT22;19920;52.242;20.940;2022-10-17T03:03:25;12.60;99.90
33594;DHT22;19920;52.242;20.940;2022-10-17T03:05:51;12.70;99.90
33594;DHT22;19920;52.242;20.940;2022-10-17T03:08:18;12.70;99.90
33594;DHT22;19920;52.242;20.940;2022-10-17T03:10:43;12.70;99.90
33594;DHT22;19920;52.242;20.940;2022-10-17T03:13:09;12.70;99.90
33594;DHT22;19920;52.242;20.940;2022-10-17T03:15:35;12.70;99.90
33594;DHT22;19920;52.242;20.940;2022-10-17T03:18:01;12.70;99.90
33594;DHT22;19920;52.242;20.940;2022-10-17T03:20:26;12.70;99.90
33594;DHT22;19920;52.242;20.940;2022-10-17T03:22:52;12.70;99.90
33594;DHT22;19920;52.242;20.940;2022-10-17T03:25:18;12.70;99.90
33594;DHT22;19920;52.242;20.940;2022-10-17T03:27:43;12.70;99.90
33594;DHT22;19920;52.242;20.940;2022-10-17T03:30:09;12.70;99.90
33594;DHT22;19920;52.242;20.940;2022-10-17T03:32:35;12.70;99.90
33594;DHT22;19920;52.242;20.940;2022-10-17T03:35:01;12.80;99.90
33594;DHT22;19920;52.242;20.940;2022-10-17T03:37:27;12.80;99.90
33594;DHT22;19920;52.242;20.940;2022-10-17T03:39:52;12.80;99.90
33594;DHT22;19920;52.242;20.940;2022-10-17T03:42:18;12.90;99.90
33594;DHT22;19920;52.242;20.940;2022-10-17T03:44:44;13.00;99.90
33594;DHT22;19920;52.242;20.940;2022-10-17T03:47:09;13.00;99.90
33594;DHT22;19920;52.242;20.940;2022-10-17T03:49:35;13.00;99.90
33594;DHT22;19920;52.242;20.940;2022-10-17T03:52:01;13.10;99.90
33594;DHT22;19920;52.242;20.940;2022-10-17T03:54:27;13.10;99.90
33594;DHT22;19920;52.242;20.940;2022-10-17T03:56:52;13.30;99.90
33594;DHT22;19920;52.242;20.940;2022-10-17T03:59:18;13.30;99.90
33594;DHT22;19920;52.242;20.940;2022-10-17T04:01:44;13.40;99.90
33594;DHT22;19920;52.242;20.940;2022-10-17T04:04:09;13.40;99.90
33594;DHT22;19920;52.242;20.940;2022-10-17T04:06:36;13.50;99.90
33594;DHT22;19920;52.242;20.940;2022-10-17T04:09:03;13.60;99.90
33594;DHT22;19920;52.242;20.940;2022-10-17T04:11:29;13.70;99.90
33594;DHT22;19920;52.242;20.940;2022-10-17T04:13:56;13.70;99.90
33594;DHT22;19920;52.242;20.940;2022-10-17T04:16:22;13.70;99.90
33594;DHT22;19920;52.242;20.940;2022-10-17T04:18:53;13.80;99.90
33594;DHT22;19920;52.242;20.940;2022-10-17T04:21:20;13.70;99.90
33594;DHT22;19920;52.242;20.940;2022-10-17T04:23:45;13.80;99.90
33594;DHT22;19920;52.242;20.940;2022-10-17T04:26:11;13.80;99.90
33594;DHT22;19920;52.242;20.940;2022-10-17T04:28:37;13.80;99.90
33594;DHT22;19920;52.242;20.940;2022-10-17T04:31:09;13.80;99.90
33594;DHT22;19920;52.242;20.940;2022-10-17T04:33:36;13.80;99.90
33594;DHT22;19920;52.242;20.940;2022-10-17T04:36:11;13.80;99.90
33594;DHT22;19920;52.242;20.940;2022-10-17T04:38:38;13.80;99.90
33594;DHT22;19920;52.242;20.940;2022-10-17T04:41:10;13.70;99.90
33594;DHT22;19920;52.242;20.940;2022-10-17T04:43:37;13.60;99.90
33594;DHT22;19920;52.242;20.940;2022-10-17T04:46:13;13.60;99.90
33594;DHT22;19920;52.242;20.940;2022-10-17T04:48:39;13.50;99.90
33594;DHT22;19920;52.242;20.940;2022-10-17T04:51:13;13.50;99.90
33594;DHT22;19920;52.242;20.940;2022-10-17T04:53:40;13.50;99.90
33594;DHT22;19920;52.242;20.940;2022-10-17T04:56:14;13.50;99.90
33594;DHT22;19920;52.242;20.940;2022-10-17T04:58:41;13.60;99.90
33594;DHT22;19920;52.242;20.940;2022-10-17T05:01:11;13.60;99.90
33594;DHT22;19920;52.242;20.940;2022-10-17T05:03:37;13.70;99.90
33594;DHT22;19920;52.242;20.940;2022-10-17T05:06:05;13.70;99.90
33594;DHT22;19920;52.242;20.940;2022-10-17T05:08:31;13.70;99.90
33594;DHT22;19920;52.242;20.940;2022-10-17T05:10:57;13.70;99.90
33594;DHT22;19920;52.242;20.940;2022-10-17T05:13:23;13.80;99.90
33594;DHT22;19920;52.242;20.940;2022-10-17T05:15:48;13.80;99.90
33594;DHT22;19920;52.242;20.940;2022-10-17T05:18:14;13.70;99.90
33594;DHT22;19920;52.242;20.940;2022-10-17T05:20:40;13.80;99.90
33594;DHT22;19920;52.242;20.940;2022-10-17T05:23:06;13.80;99.90
33594;DHT22;19920;52.242;20.940;2022-10-17T05:25:31;13.70;99.90
33594;DHT22;19920;52.242;20.940;2022-10-17T05:27:57;13.70;99.90
33594;DHT22;19920;52.242;20.940;2022-10-17T05:30:23;13.70;99.90
33594;DHT22;19920;52.242;20.940;2022-10-17T05:32:52;13.60;99.90
33594;DHT22;19920;52.242;20.940;2022-10-17T05:35:19;13.60;99.90
33594;DHT22;19920;52.242;20.940;2022-10-17T05:37:44;13.60;99.90
33594;DHT22;19920;52.242;20.940;2022-10-17T05:40:11;13.50;99.90
33594;DHT22;19920;52.242;20.940;2022-10-17T05:42:37;13.60;99.90
33594;DHT22;19920;52.242;20.940;2022-10-17T05:45:03;13.60;99.90
33594;DHT22;19920;52.242;20.940;2022-10-17T05:47:29;13.60;99.90
33594;DHT22;19920;52.242;20.940;2022-10-17T05:49:55;13.60;99.90
33594;DHT22;19920;52.242;20.940;2022-10-17T05:52:20;13.70;99.90
33594;DHT22;19920;52.242;20.940;2022-10-17T05:54:46;13.80;99.90
33594;DHT22;19920;52.242;20.940;2022-10-17T05:57:12;13.80;99.90
33594;DHT22;19920;52.242;20.940;2022-10-17T05:59:37;13.80;99.90
33594;DHT22;19920;52.242;20.940;2022-10-17T06:02:03;13.90;99.90
33594;DHT22;19920;52.242;20.940;2022-10-17T06:04:29;13.90;99.90
33594;DHT22;19920;52.242;20.940;2022-10-17T06:06:54;13.90;99.90
33594;DHT22;19920;52.242;20.940;2022-10-17T06:09:21;13.90;99.90
33594;DHT22;19920;52.242;20.940;2022-10-17T06:11:47;14.00;99.90
33594;DHT22;19920;52.242;20.940;2022-10-17T06:14:12;14.00;99.90
33594;DHT22;19920;52.242;20.940;2022-10-17T06:16:38;14.00;99.90
33594;DHT22;19920;52.242;20.940;2022-10-17T06:19:04;14.10;99.90
33594;DHT22;19920;52.242;20.940;2022-10-17T06:21:30;14.20;99.90
33594;DHT22;19920;52.242;20.940;2022-10-17T06:24:00;14.20;99.90
33594;DHT22;19920;52.242;20.940;2022-10-17T06:26:26;14.20;99.90
33594;DHT22;19920;52.242;20.940;2022-10-17T06:28:53;14.30;99.90
33594;DHT22;19920;52.242;20.940;2022-10-17T06:31:19;14.40;99.90
33594;DHT22;19920;52.242;20.940;2022-10-17T06:33:45;14.50;99.90
33594;DHT22;19920;52.242;20.940;2022-10-17T06:36:12;14.50;99.90
33594;DHT22;19920;52.242;20.940;2022-10-17T06:38:39;14.60;99.90
33594;DHT22;19920;52.242;20.940;2022-10-17T06:41:10;14.70;99.90
33594;DHT22;19920;52.242;20.940;2022-10-17T06:43:39;14.80;99.90
33594;DHT22;19920;52.242;20.940;2022-10-17T06:46:08;14.80;99.90
33594;DHT22;19920;52.242;20.940;2022-10-17T06:48:34;14.80;99.90
33594;DHT22;19920;52.242;20.940;2022-10-17T06:51:02;14.80;99.90
33594;DHT22;19920;52.242;20.940;2022-10-17T06:53:30;15.00;99.90
33594;DHT22;19920;52.242;20.940;2022-10-17T06:55:56;15.10;99.90
33594;DHT22;19920;52.242;20.940;2022-10-17T06:58:26;15.20;99.90
33594;DHT22;19920;52.242;20.940;2022-10-17T07:00:58;15.30;99.90
33594;DHT22;19920;52.242;20.940;2022-10-17T07:03:24;15.40;99.90
33594;DHT22;19920;52.242;20.940;2022-10-17T07:05:53;15.40;99.90
33594;DHT22;19920;52.242;20.940;2022-10-17T07:08:20;15.50;99.90
33594;DHT22;19920;52.242;20.940;2022-10-17T07:10:45;15.40;99.90
33594;DHT22;19920;52.242;20.940;2022-10-17T07:13:11;15.50;99.90
33594;DHT22;19920;52.242;20.940;2022-10-17T07:15:37;15.50;99.90
33594;DHT22;19920;52.242;20.940;2022-10-17T07:18:03;15.60;99.90
33594;DHT22;19920;52.242;20.940;2022-10-17T07:20:29;15.60;99.90
33594;DHT22;19920;52.242;20.940;2022-10-17T07:22:55;15.70;99.90
33594;DHT22;19920;52.242;20.940;2022-10-17T07:25:21;15.80;99.90
33594;DHT22;19920;52.242;20.940;2022-10-17T07:27:50;15.80;99.90
33594;DHT22;19920;52.242;20.940;2022-10-17T07:30:16;15.90;99.90
33594;DHT22;19920;52.242;20.940;2022-10-17T07:32:42;15.90;99.90
33594;DHT22;19920;52.242;20.940;2022-10-17T07:35:09;16.00;99.90
33594;DHT22;19920;52.242;20.940;2022-10-17T07:37:35;16.10;99.90
33594;DHT22;19920;52.242;20.940;2022-10-17T07:40:02;16.20;99.90
33594;DHT22;19920;52.242;20.940;2022-10-17T07:42:28;16.20;99.90
33594;DHT22;19920;52.242;20.940;2022-10-17T07:44:54;16.20;99.90
33594;DHT22;19920;52.242;20.940;2022-10-17T07:47:20;16.30;99.90
33594;DHT22;19920;52.242;20.940;2022-10-17T07:49:46;16.30;99.90
33594;DHT22;19920;52.242;20.940;2022-10-17T07:52:12;16.40;99.90
33594;DHT22;19920;52.242;20.940;2022-10-17T07:54:38;16.40;99.90
33594;DHT22;19920;52.242;20.940;2022-10-17T07:57:04;16.50;99.90
33594;DHT22;19920;52.242;20.940;2022-10-17T07:59:32;16.50;99.90
33594;DHT22;19920;52.242;20.940;2022-10-17T08:01:58;16.50;99.90
33594;DHT22;19920;52.242;20.940;2022-10-17T08:04:24;16.60;99.90
33594;DHT22;19920;52.242;20.940;2022-10-17T08:06:50;16.80;99.90
33594;DHT22;19920;52.242;20.940;2022-10-17T08:09:16;16.70;99.90
33594;DHT22;19920;52.242;20.940;2022-10-17T08:11:42;16.80;99.90
33594;DHT22;19920;52.242;20.940;2022-10-17T08:14:09;16.80;99.90
33594;DHT22;19920;52.242;20.940;2022-10-17T08:16:35;16.80;99.90
33594;DHT22;19920;52.242;20.940;2022-10-17T08:19:01;16.90;99.90
33594;DHT22;19920;52.242;20.940;2022-10-17T08:21:27;16.90;99.90
33594;DHT22;19920;52.242;20.940;2022-10-17T08:23:53;17.00;99.90
33594;DHT22;19920;52.242;20.940;2022-10-17T08:26:18;16.90;99.90
33594;DHT22;19920;52.242;20.940;2022-10-17T08:28:45;17.10;99.90
33594;DHT22;19920;52.242;20.940;2022-10-17T08:31:13;17.10;99.90
33594;DHT22;19920;52.242;20.940;2022-10-17T08:33:40;17.00;99.90
33594;DHT22;19920;52.242;20.940;2022-10-17T08:36:06;17.00;99.90
33594;DHT22;19920;52.242;20.940;2022-10-17T08:38:34;17.10;99.90
33594;DHT22;19920;52.242;20.940;2022-10-17T08:41:03;17.10;99.90
33594;DHT22;19920;52.242;20.940;2022-10-17T08:46:33;17.20;99.90
33594;DHT22;19920;52.242;20.940;2022-10-17T08:49:01;17.30;99.90
33594;DHT22;19920;52.242;20.940;2022-10-17T08:51:30;17.40;99.90
33594;DHT22;19920;52.242;20.940;2022-10-17T08:54:05;17.50;99.90
33594;DHT22;19920;52.242;20.940;2022-10-17T08:56:44;17.50;99.90
33594;DHT22;19920;52.242;20.940;2022-10-17T08:59:19;17.60;99.90
33594;DHT22;19920;52.242;20.940;2022-10-17T09:04:57;17.80;99.90
33594;DHT22;19920;52.242;20.940;2022-10-17T09:10:20;18.00;99.90
33594;DHT22;19920;52.242;20.940;2022-10-17T09:18:32;18.40;99.90
33594;DHT22;19920;52.242;20.940;2022-10-17T09:23:51;18.60;99.90
33594;DHT22;19920;52.242;20.940;2022-10-17T09:26:17;18.80;99.90
33594;DHT22;19920;52.242;20.940;2022-10-17T09:28:43;18.90;99.90
33594;DHT22;19920;52.242;20.940;2022-10-17T09:31:31;19.00;99.90
33594;DHT22;19920;52.242;20.940;2022-10-17T09:34:00;19.10;99.90
33594;DHT22;19920;52.242;20.940;2022-10-17T09:36:32;19.30;99.90
33594;DHT22;19920;52.242;20.940;2022-10-17T09:39:12;19.40;99.90
33594;DHT22;19920;52.242;20.940;2022-10-17T09:41:45;19.50;99.90
33594;DHT22;19920;52.242;20.940;2022-10-17T09:44:30;19.50;99.90
33594;DHT22;19920;52.242;20.940;2022-10-17T09:47:21;19.60;99.90
33594;DHT22;19920;52.242;20.940;2022-10-17T09:49:49;19.70;99.90
33594;DHT22;19920;52.242;20.940;2022-10-17T09:55:40;19.80;99.90
33594;DHT22;19920;52.242;20.940;2022-10-17T09:58:04;19.90;99.90
33594;DHT22;19920;52.242;20.940;2022-10-17T10:03:24;19.90;99.90
33594;DHT22;19920;52.242;20.940;2022-10-17T10:08:30;20.10;99.90
33594;DHT22;19920;52.242;20.940;2022-10-17T10:11:01;20.00;99.90
33594;DHT22;19920;52.242;20.940;2022-10-17T10:13:30;20.10;99.90
33594;DHT22;19920;52.242;20.940;2022-10-17T10:18:38;20.30;99.90
33594;DHT22;19920;52.242;20.940;2022-10-17T10:21:17;20.40;99.90
33594;DHT22;19920;52.242;20.940;2022-10-17T10:26:49;20.70;99.90
33594;DHT22;19920;52.242;20.940;2022-10-17T10:29:20;20.80;99.90
33594;DHT22;19920;52.242;20.940;2022-10-17T10:31:47;20.90;99.90
33594;DHT22;19920;52.242;20.940;2022-10-17T10:34:28;21.00;99.90
33594;DHT22;19920;52.242;20.940;2022-10-17T10:37:05;21.20;99.90
33594;DHT22;19920;52.242;20.940;2022-10-17T10:39:56;21.30;99.90
33594;DHT22;19920;52.242;20.940;2022-10-17T10:42:36;21.40;99.90
33594;DHT22;19920;52.242;20.940;2022-10-17T10:45:25;21.30;99.90
33594;DHT22;19920;52.242;20.940;2022-10-17T10:47:56;21.40;99.90
33594;DHT22;19920;52.242;20.940;2022-10-17T10:50:33;21.50;99.90
33594;DHT22;19920;52.242;20.940;2022-10-17T11:06:29;21.80;99.90
33594;DHT22;19920;52.242;20.940;2022-10-17T11:12:00;21.80;99.90
33594;DHT22;19920;52.242;20.940;2022-10-17T11:17:56;21.90;99.90
33594;DHT22;19920;52.242;20.940;2022-10-17T11:20:19;21.80;99.90
33594;DHT22;19920;52.242;20.940;2022-10-17T11:22:47;21.70;99.90
33594;DHT22;19920;52.242;20.940;2022-10-17T11:25:33;21.60;99.90
33594;DHT22;19920;52.242;20.940;2022-10-17T11:28:00;21.60;99.90
33594;DHT22;19920;52.242;20.940;2022-10-17T11:30:30;21.60;99.90
33594;DHT22;19920;52.242;20.940;2022-10-17T11:33:00;21.60;99.90
33594;DHT22;19920;52.242;20.940;2022-10-17T11:35:40;21.60;99.90
33594;DHT22;19920;52.242;20.940;2022-10-17T11:38:29;21.50;99.90
33594;DHT22;19920;52.242;20.940;2022-10-17T11:40:59;21.60;99.90
33594;DHT22;19920;52.242;20.940;2022-10-17T11:43:48;21.60;99.90
33594;DHT22;19920;52.242;20.940;2022-10-17T11:46:20;21.70;99.90
33594;DHT22;19920;52.242;20.940;2022-10-17T11:48:59;21.80;99.90
33594;DHT22;19920;52.242;20.940;2022-10-17T11:51:29;21.90;99.90
33594;DHT22;19920;52.242;20.940;2022-10-17T11:54:18;21.90;99.90
33594;DHT22;19920;52.242;20.940;2022-10-17T12:02:13;22.30;99.90
33594;DHT22;19920;52.242;20.940;2022-10-17T12:14:36;22.60;99.90
33594;DHT22;19920;52.242;20.940;2022-10-17T12:19:46;22.70;99.90
33594;DHT22;19920;52.242;20.940;2022-10-17T12:22:20;22.70;99.90
33594;DHT22;19920;52.242;20.940;2022-10-17T12:25:19;22.80;99.90
33594;DHT22;19920;52.242;20.940;2022-10-17T12:27:47;22.70;99.90
33594;DHT22;19920;52.242;20.940;2022-10-17T12:30:25;22.60;99.90
33594;DHT22;19920;52.242;20.940;2022-10-17T12:35:22;22.90;99.90
33594;DHT22;19920;52.242;20.940;2022-10-17T12:45:57;23.20;99.90
33594;DHT22;19920;52.242;20.940;2022-10-17T12:51:14;23.50;99.90
33594;DHT22;19920;52.242;20.940;2022-10-17T12:54:01;23.70;99.90
33594;DHT22;19920;52.242;20.940;2022-10-17T12:56:44;24.00;99.90
33594;DHT22;19920;52.242;20.940;2022-10-17T13:01:48;24.00;99.90
33594;DHT22;19920;52.242;20.940;2022-10-17T13:04:14;23.80;99.90
33594;DHT22;19920;52.242;20.940;2022-10-17T13:06:46;23.80;99.90
33594;DHT22;19920;52.242;20.940;2022-10-17T13:09:31;23.90;99.90
33594;DHT22;19920;52.242;20.940;2022-10-17T13:12:03;24.00;99.90
33594;DHT22;19920;52.242;20.940;2022-10-17T13:14:31;24.20;99.90
33594;DHT22;19920;52.242;20.940;2022-10-17T13:17:05;24.30;99.90
33594;DHT22;19920;52.242;20.940;2022-10-17T13:19:40;24.10;99.90
33594;DHT22;19920;52.242;20.940;2022-10-17T13:22:19;24.10;99.90
33594;DHT22;19920;52.242;20.940;2022-10-17T13:24:46;24.00;99.90
33594;DHT22;19920;52.242;20.940;2022-10-17T13:27:27;23.80;99.90
33594;DHT22;19920;52.242;20.940;2022-10-17T13:29:54;23.50;99.90
33594;DHT22;19920;52.242;20.940;2022-10-17T13:32:22;23.50;99.90
33594;DHT22;19920;52.242;20.940;2022-10-17T13:37:30;23.70;99.90
33594;DHT22;19920;52.242;20.940;2022-10-17T13:39:56;23.70;99.90
33594;DHT22;19920;52.242;20.940;2022-10-17T13:42:35;23.60;99.90
33594;DHT22;19920;52.242;20.940;2022-10-17T13:45:00;23.60;99.90
33594;DHT22;19920;52.242;20.940;2022-10-17T13:47:31;23.50;99.90
33594;DHT22;19920;52.242;20.940;2022-10-17T13:49:58;23.60;99.90
33594;DHT22;19920;52.242;20.940;2022-10-17T13:52:26;23.60;99.90
33594;DHT22;19920;52.242;20.940;2022-10-17T13:54:53;23.50;99.90
33594;DHT22;19920;52.242;20.940;2022-10-17T13:57:23;23.20;99.90
33594;DHT22;19920;52.242;20.940;2022-10-17T13:59:53;22.90;99.90
33594;DHT22;19920;52.242;20.940;2022-10-17T14:02:23;22.80;99.90
33594;DHT22;19920;52.242;20.940;2022-10-17T14:05:12;22.80;99.90
33594;DHT22;19920;52.242;20.940;2022-10-17T14:07:51;22.60;99.90
33594;DHT22;19920;52.242;20.940;2022-10-17T14:10:30;22.50;99.90
33594;DHT22;19920;52.242;20.940;2022-10-17T14:12:57;22.20;99.90
33594;DHT22;19920;52.242;20.940;2022-10-17T14:15:30;22.10;99.90
33594;DHT22;19920;52.242;20.940;2022-10-17T14:17:59;21.90;99.90
33594;DHT22;19920;52.242;20.940;2022-10-17T14:20:25;21.80;99.90
33594;DHT22;19920;52.242;20.940;2022-10-17T14:22:54;21.80;99.90
33594;DHT22;19920;52.242;20.940;2022-10-17T14:25:33;21.60;99.90
33594;DHT22;19920;52.242;20.940;2022-10-17T14:28:13;21.50;99.90
33594;DHT22;19920;52.242;20.940;2022-10-17T14:30:47;21.40;99.90
33594;DHT22;19920;52.242;20.940;2022-10-17T14:33:24;21.30;99.90
33594;DHT22;19920;52.242;20.940;2022-10-17T14:35:53;21.30;99.90
33594;DHT22;19920;52.242;20.940;2022-10-17T14:38:20;21.20;99.90
33594;DHT22;19920;52.242;20.940;2022-10-17T14:40:56;21.20;99.90
33594;DHT22;19920;52.242;20.940;2022-10-17T14:43:24;21.20;99.90
33594;DHT22;19920;52.242;20.940;2022-10-17T14:45:50;21.10;99.90
33594;DHT22;19920;52.242;20.940;2022-10-17T14:48:19;21.00;99.90
33594;DHT22;19920;52.242;20.940;2022-10-17T14:51:12;21.00;99.90
33594;DHT22;19920;52.242;20.940;2022-10-17T14:53:39;21.00;99.90
33594;DHT22;19920;52.242;20.940;2022-10-17T14:56:38;20.80;99.90
33594;DHT22;19920;52.242;20.940;2022-10-17T14:59:04;20.80;99.90
33594;DHT22;19920;52.242;20.940;2022-10-17T15:01:32;20.70;99.90
33594;DHT22;19920;52.242;20.940;2022-10-17T15:03:57;20.60;99.90
33594;DHT22;19920;52.242;20.940;2022-10-17T15:06:28;20.60;99.90
33594;DHT22;19920;52.242;20.940;2022-10-17T15:08:54;20.50;99.90
33594;DHT22;19920;52.242;20.940;2022-10-17T15:11:19;20.40;99.90
33594;DHT22;19920;52.242;20.940;2022-10-17T15:13:45;20.40;99.90
33594;DHT22;19920;52.242;20.940;2022-10-17T15:16:32;20.30;99.90
33594;DHT22;19920;52.242;20.940;2022-10-17T15:18:58;20.10;99.90
33594;DHT22;19920;52.242;20.940;2022-10-17T15:21:24;20.00;99.90
33594;DHT22;19920;52.242;20.940;2022-10-17T15:23:51;19.90;99.90
33594;DHT22;19920;52.242;20.940;2022-10-17T15:28:44;19.80;99.90
33594;DHT22;19920;52.242;20.940;2022-10-17T15:31:13;19.70;99.90
33594;DHT22;19920;52.242;20.940;2022-10-17T15:33:40;19.60;99.90
33594;DHT22;19920;52.242;20.940;2022-10-17T15:36:27;19.50;99.90
33594;DHT22;19920;52.242;20.940;2022-10-17T15:38:58;19.50;99.90
33594;DHT22;19920;52.242;20.940;2022-10-17T15:41:27;19.40;99.90
33594;DHT22;19920;52.242;20.940;2022-10-17T15:43:52;19.30;99.90
33594;DHT22;19920;52.242;20.940;2022-10-17T15:46:21;19.20;99.90
33594;DHT22;19920;52.242;20.940;2022-10-17T15:48:48;19.20;99.90
33594;DHT22;19920;52.242;20.940;2022-10-17T15:51:14;19.10;99.90
33594;DHT22;19920;52.242;20.940;2022-10-17T15:53:39;19.00;99.90
33594;DHT22;19920;52.242;20.940;2022-10-17T15:56:06;19.00;99.90
33594;DHT22;19920;52.242;20.940;2022-10-17T15:58:39;18.90;99.90
33594;DHT22;19920;52.242;20.940;2022-10-17T16:01:05;18.80;99.90
33594;DHT22;19920;52.242;20.940;2022-10-17T16:03:32;18.80;99.90
33594;DHT22;19920;52.242;20.940;2022-10-17T16:05:58;18.80;99.90
33594;DHT22;19920;52.242;20.940;2022-10-17T16:08:24;18.70;99.90
33594;DHT22;19920;52.242;20.940;2022-10-17T16:10:50;18.50;99.90
33594;DHT22;19920;52.242;20.940;2022-10-17T16:13:21;18.50;99.90
33594;DHT22;19920;52.242;20.940;2022-10-17T16:15:47;18.50;99.90
33594;DHT22;19920;52.242;20.940;2022-10-17T16:18:13;18.50;99.90
33594;DHT22;19920;52.242;20.940;2022-10-17T16:20:39;18.40;99.90
33594;DHT22;19920;52.242;20.940;2022-10-17T16:23:05;18.40;99.90
33594;DHT22;19920;52.242;20.940;2022-10-17T16:25:33;18.40;99.90
33594;DHT22;19920;52.242;20.940;2022-10-17T16:27:59;18.30;99.90
33594;DHT22;19920;52.242;20.940;2022-10-17T16:30:28;18.30;99.90
33594;DHT22;19920;52.242;20.940;2022-10-17T16:32:54;18.20;99.90
33594;DHT22;19920;52.242;20.940;2022-10-17T16:35:25;18.20;99.90
33594;DHT22;19920;52.242;20.940;2022-10-17T16:37:51;18.10;99.90
33594;DHT22;19920;52.242;20.940;2022-10-17T16:40:17;18.10;99.90
33594;DHT22;19920;52.242;20.940;2022-10-17T16:42:43;18.00;99.90
33594;DHT22;19920;52.242;20.940;2022-10-17T16:45:18;18.00;99.90
33594;DHT22;19920;52.242;20.940;2022-10-17T16:47:44;17.90;99.90
33594;DHT22;19920;52.242;20.940;2022-10-17T16:50:10;17.80;99.90
33594;DHT22;19920;52.242;20.940;2022-10-17T16:52:36;17.90;99.90
33594;DHT22;19920;52.242;20.940;2022-10-17T16:55:01;17.90;99.90
33594;DHT22;19920;52.242;20.940;2022-10-17T16:57:27;17.80;99.90
33594;DHT22;19920;52.242;20.940;2022-10-17T16:59:53;17.70;99.90
33594;DHT22;19920;52.242;20.940;2022-10-17T17:02:18;17.70;99.90
33594;DHT22;19920;52.242;20.940;2022-10-17T17:04:44;17.60;99.90
33594;DHT22;19920;52.242;20.940;2022-10-17T17:07:10;17.60;99.90
33594;DHT22;19920;52.242;20.940;2022-10-17T17:09:35;17.60;99.90
33594;DHT22;19920;52.242;20.940;2022-10-17T17:12:01;17.60;99.90
33594;DHT22;19920;52.242;20.940;2022-10-17T17:14:27;17.50;99.90
33594;DHT22;19920;52.242;20.940;2022-10-17T17:16:52;17.50;99.90
33594;DHT22;19920;52.242;20.940;2022-10-17T17:19:18;17.50;99.90
33594;DHT22;19920;52.242;20.940;2022-10-17T17:21:45;17.40;99.90
33594;DHT22;19920;52.242;20.940;2022-10-17T17:24:18;17.40;99.90
33594;DHT22;19920;52.242;20.940;2022-10-17T17:26:51;17.40;99.90
33594;DHT22;19920;52.242;20.940;2022-10-17T17:29:17;17.40;99.90
33594;DHT22;19920;52.242;20.940;2022-10-17T17:31:43;17.40;99.90
33594;DHT22;19920;52.242;20.940;2022-10-17T17:34:08;17.30;99.90
33594;DHT22;19920;52.242;20.940;2022-10-17T17:36:35;17.30;99.90
33594;DHT22;19920;52.242;20.940;2022-10-17T17:39:05;17.20;99.90
33594;DHT22;19920;52.242;20.940;2022-10-17T17:41:31;17.20;99.90